หน้าหลัก
METAR-TAF:

METAR-TAF

ท่าอากาศยาน :

Aupaluk, ควิเบก, แคนาดา

ละติจูด: 59-17-48N, ลองจิจูด: 069-35-59W, ความสูง: 35 ม.

การสังเกตสภาพอากาศปัจจุบัน

รายงานได้ทำขึ้นเมื่อ 11 ชั่วโมงและ 29 นาทีที่แล้ว ณ เวลา 21:00 UTC
ลม 15 นอตจากตะวันออก/ตะวันออกเฉียงเหนือ
อุณหภูมิ -5°C
ความชื้น 93%
ความกดอากาศ 1011 hPa
ทัศนวิสัย: 24.1 กม.
มีเมฆมาก มืดครึ้มที่ความสูง 900 ฟุต

METAR: CYLA 192100Z 06015KT 15SM OVC009 M05/M06 A2984 RMK SC8 LAST OBS/NEXT 201200UTC SLP109

เวลา: 04:29 (08:29 UTC)


TAF: หายไป

สังเกตการณ์สภาพอากาศและพยากรณ์อากาศของสนามบินมากกว่า 4000 แห่ง (รายงาน METAR และ TAF).

สถานีที่ดูได้จะแสดงไว้ด้วยจุดสีเหลืองและสีแดงบนแผนที่.

เลื่อนเมาส์ไปเหนือจุดเพื่อดูชื่อสถานี.

แล้วคลิกเพื่อดูสังเกตการณ์และการพยากรณ์สภาพอากาศ.

ในการเปลี่ยนแผนที่: คลิกที่ปุ่มสีเขียวที่มีกากบาทสีดำเพื่อซูมเข้า; ที่ปุ่มสีเขียวที่มีขีดเพื่อซูมออก; หรือที่ลูกศรสีเขียวเพื่อไปยังแผนที่ที่อยู่ติดกัน.


METAR-TAF: